sensor_id;sensor_type;location;lat;lon;timestamp;temperature;humidity
3478;DHT22;37937;61.490;23.506;2023-11-22T00:02:02;-3.50;99.90
3478;DHT22;37937;61.490;23.506;2023-11-22T00:04:28;-3.60;99.90
3478;DHT22;37937;61.490;23.506;2023-11-22T00:06:54;-3.60;99.90
3478;DHT22;37937;61.490;23.506;2023-11-22T00:09:19;-3.60;99.90
3478;DHT22;37937;61.490;23.506;2023-11-22T00:11:48;-3.50;99.90
3478;DHT22;37937;61.490;23.506;2023-11-22T00:14:14;-3.40;99.90
3478;DHT22;37937;61.490;23.506;2023-11-22T00:16:40;-3.40;99.90
3478;DHT22;37937;61.490;23.506;2023-11-22T00:19:05;-3.40;99.90
3478;DHT22;37937;61.490;23.506;2023-11-22T00:21:32;-3.50;99.90
3478;DHT22;37937;61.490;23.506;2023-11-22T00:23:57;-3.50;99.90
3478;DHT22;37937;61.490;23.506;2023-11-22T00:26:23;-3.60;99.90
3478;DHT22;37937;61.490;23.506;2023-11-22T00:28:49;-3.50;99.90
3478;DHT22;37937;61.490;23.506;2023-11-22T00:31:15;-3.50;99.90
3478;DHT22;37937;61.490;23.506;2023-11-22T00:33:42;-3.60;99.90
3478;DHT22;37937;61.490;23.506;2023-11-22T00:36:08;-3.40;99.90
3478;DHT22;37937;61.490;23.506;2023-11-22T00:38:35;-3.40;99.90
3478;DHT22;37937;61.490;23.506;2023-11-22T00:41:05;-3.40;99.90
3478;DHT22;37937;61.490;23.506;2023-11-22T00:43:32;-3.40;99.90
3478;DHT22;37937;61.490;23.506;2023-11-22T00:45:58;-3.50;99.90
3478;DHT22;37937;61.490;23.506;2023-11-22T00:48:24;-3.50;99.90
3478;DHT22;37937;61.490;23.506;2023-11-22T00:50:49;-3.50;99.90
3478;DHT22;37937;61.490;23.506;2023-11-22T00:53:15;-3.50;99.90
3478;DHT22;37937;61.490;23.506;2023-11-22T00:55:41;-3.50;99.90
3478;DHT22;37937;61.490;23.506;2023-11-22T00:58:07;-3.70;99.90
3478;DHT22;37937;61.490;23.506;2023-11-22T01:00:33;-3.70;99.90
3478;DHT22;37937;61.490;23.506;2023-11-22T01:02:58;-3.50;99.90
3478;DHT22;37937;61.490;23.506;2023-11-22T01:05:24;-3.50;99.90
3478;DHT22;37937;61.490;23.506;2023-11-22T01:07:50;-3.40;99.90
3478;DHT22;37937;61.490;23.506;2023-11-22T01:10:16;-3.30;99.90
3478;DHT22;37937;61.490;23.506;2023-11-22T01:12:41;-3.30;99.90
3478;DHT22;37937;61.490;23.506;2023-11-22T01:15:07;-3.30;99.90
3478;DHT22;37937;61.490;23.506;2023-11-22T01:17:34;-3.50;99.90
3478;DHT22;37937;61.490;23.506;2023-11-22T01:20:00;-3.50;99.90
3478;DHT22;37937;61.490;23.506;2023-11-22T01:22:26;-3.30;99.90
3478;DHT22;37937;61.490;23.506;2023-11-22T01:24:52;-3.30;99.90
3478;DHT22;37937;61.490;23.506;2023-11-22T01:27:18;-3.50;99.90
3478;DHT22;37937;61.490;23.506;2023-11-22T01:29:44;-3.50;99.90
3478;DHT22;37937;61.490;23.506;2023-11-22T01:32:09;-3.70;99.90
3478;DHT22;37937;61.490;23.506;2023-11-22T01:34:35;-3.70;99.90
3478;DHT22;37937;61.490;23.506;2023-11-22T01:37:01;-3.70;99.90
3478;DHT22;37937;61.490;23.506;2023-11-22T01:39:27;-3.70;99.90
3478;DHT22;37937;61.490;23.506;2023-11-22T01:41:52;-3.50;99.90
3478;DHT22;37937;61.490;23.506;2023-11-22T01:44:19;-3.40;99.90
3478;DHT22;37937;61.490;23.506;2023-11-22T01:46:45;-3.40;99.90
3478;DHT22;37937;61.490;23.506;2023-11-22T01:49:11;-3.30;99.90
3478;DHT22;37937;61.490;23.506;2023-11-22T01:51:40;-3.20;99.90
3478;DHT22;37937;61.490;23.506;2023-11-22T01:54:08;-3.20;99.90
3478;DHT22;37937;61.490;23.506;2023-11-22T01:56:35;-3.40;99.90
3478;DHT22;37937;61.490;23.506;2023-11-22T01:59:00;-3.50;99.90
3478;DHT22;37937;61.490;23.506;2023-11-22T02:01:26;-3.60;99.90
3478;DHT22;37937;61.490;23.506;2023-11-22T02:03:52;-3.60;99.90
3478;DHT22;37937;61.490;23.506;2023-11-22T02:06:19;-3.50;99.90
3478;DHT22;37937;61.490;23.506;2023-11-22T02:08:44;-3.40;99.90
3478;DHT22;37937;61.490;23.506;2023-11-22T02:11:10;-3.40;99.90
3478;DHT22;37937;61.490;23.506;2023-11-22T02:13:36;-3.50;99.90
3478;DHT22;37937;61.490;23.506;2023-11-22T02:16:02;-3.50;99.90
3478;DHT22;37937;61.490;23.506;2023-11-22T02:18:28;-3.40;99.90
3478;DHT22;37937;61.490;23.506;2023-11-22T02:20:54;-3.40;99.90
3478;DHT22;37937;61.490;23.506;2023-11-22T02:23:19;-3.40;99.90
3478;DHT22;37937;61.490;23.506;2023-11-22T02:25:45;-3.30;99.90
3478;DHT22;37937;61.490;23.506;2023-11-22T02:28:11;-3.20;99.90
3478;DHT22;37937;61.490;23.506;2023-11-22T02:30:37;-3.10;99.90
3478;DHT22;37937;61.490;23.506;2023-11-22T02:33:03;-3.10;99.90
3478;DHT22;37937;61.490;23.506;2023-11-22T02:35:30;-3.10;99.90
3478;DHT22;37937;61.490;23.506;2023-11-22T02:37:57;-3.10;99.90
3478;DHT22;37937;61.490;23.506;2023-11-22T02:40:23;-3.10;99.90
3478;DHT22;37937;61.490;23.506;2023-11-22T02:42:50;-3.00;99.90
3478;DHT22;37937;61.490;23.506;2023-11-22T02:45:16;-3.00;99.90
3478;DHT22;37937;61.490;23.506;2023-11-22T02:47:43;-3.20;99.90
3478;DHT22;37937;61.490;23.506;2023-11-22T02:50:10;-3.30;99.90
3478;DHT22;37937;61.490;23.506;2023-11-22T02:52:37;-3.30;99.90
3478;DHT22;37937;61.490;23.506;2023-11-22T02:55:03;-3.40;99.90
3478;DHT22;37937;61.490;23.506;2023-11-22T02:57:30;-3.30;99.90
3478;DHT22;37937;61.490;23.506;2023-11-22T02:59:56;-3.30;99.90
3478;DHT22;37937;61.490;23.506;2023-11-22T03:02:22;-3.30;99.90
3478;DHT22;37937;61.490;23.506;2023-11-22T03:04:48;-3.20;99.90
3478;DHT22;37937;61.490;23.506;2023-11-22T03:07:13;-3.20;99.90
3478;DHT22;37937;61.490;23.506;2023-11-22T03:09:40;-3.10;99.90
3478;DHT22;37937;61.490;23.506;2023-11-22T03:12:06;-3.10;99.90
3478;DHT22;37937;61.490;23.506;2023-11-22T03:14:34;-3.00;99.90
3478;DHT22;37937;61.490;23.506;2023-11-22T03:17:00;-3.20;99.90
3478;DHT22;37937;61.490;23.506;2023-11-22T03:19:26;-3.30;99.90
3478;DHT22;37937;61.490;23.506;2023-11-22T03:21:52;-3.30;99.90
3478;DHT22;37937;61.490;23.506;2023-11-22T03:24:17;-3.40;99.90
3478;DHT22;37937;61.490;23.506;2023-11-22T03:26:43;-3.50;99.90
3478;DHT22;37937;61.490;23.506;2023-11-22T03:29:10;-3.50;99.90
3478;DHT22;37937;61.490;23.506;2023-11-22T03:31:37;-3.50;99.90
3478;DHT22;37937;61.490;23.506;2023-11-22T03:34:04;-3.40;99.90
3478;DHT22;37937;61.490;23.506;2023-11-22T03:36:30;-3.40;99.90
3478;DHT22;37937;61.490;23.506;2023-11-22T03:38:56;-3.50;99.90
3478;DHT22;37937;61.490;23.506;2023-11-22T03:41:21;-3.50;99.90
3478;DHT22;37937;61.490;23.506;2023-11-22T03:43:47;-3.50;99.90
3478;DHT22;37937;61.490;23.506;2023-11-22T03:46:13;-3.50;99.90
3478;DHT22;37937;61.490;23.506;2023-11-22T03:48:38;-3.50;99.90
3478;DHT22;37937;61.490;23.506;2023-11-22T03:51:04;-3.60;99.90
3478;DHT22;37937;61.490;23.506;2023-11-22T03:53:30;-3.60;99.90
3478;DHT22;37937;61.490;23.506;2023-11-22T03:55:55;-3.60;99.90
3478;DHT22;37937;61.490;23.506;2023-11-22T03:58:21;-3.60;99.90
3478;DHT22;37937;61.490;23.506;2023-11-22T04:00:47;-3.70;99.90
3478;DHT22;37937;61.490;23.506;2023-11-22T04:03:12;-3.70;99.90
3478;DHT22;37937;61.490;23.506;2023-11-22T04:05:38;-3.60;99.90
3478;DHT22;37937;61.490;23.506;2023-11-22T04:08:04;-3.70;99.90
3478;DHT22;37937;61.490;23.506;2023-11-22T04:10:30;-3.70;99.90
3478;DHT22;37937;61.490;23.506;2023-11-22T04:12:56;-3.70;99.90
3478;DHT22;37937;61.490;23.506;2023-11-22T04:15:22;-3.70;99.90
3478;DHT22;37937;61.490;23.506;2023-11-22T04:17:48;-3.70;99.90
3478;DHT22;37937;61.490;23.506;2023-11-22T04:20:14;-3.70;99.90
3478;DHT22;37937;61.490;23.506;2023-11-22T04:22:40;-3.70;99.90
3478;DHT22;37937;61.490;23.506;2023-11-22T04:25:06;-3.70;99.90
3478;DHT22;37937;61.490;23.506;2023-11-22T04:27:34;-3.70;99.90
3478;DHT22;37937;61.490;23.506;2023-11-22T04:29:59;-3.70;99.90
3478;DHT22;37937;61.490;23.506;2023-11-22T04:32:25;-3.70;99.90
3478;DHT22;37937;61.490;23.506;2023-11-22T04:34:51;-3.70;99.90
3478;DHT22;37937;61.490;23.506;2023-11-22T04:37:17;-3.60;99.90
3478;DHT22;37937;61.490;23.506;2023-11-22T04:39:43;-3.60;99.90
3478;DHT22;37937;61.490;23.506;2023-11-22T04:42:09;-3.50;99.90
3478;DHT22;37937;61.490;23.506;2023-11-22T04:44:34;-3.50;99.90
3478;DHT22;37937;61.490;23.506;2023-11-22T04:47:00;-3.50;99.90
3478;DHT22;37937;61.490;23.506;2023-11-22T04:49:26;-3.50;99.90
3478;DHT22;37937;61.490;23.506;2023-11-22T04:51:52;-3.50;99.90
3478;DHT22;37937;61.490;23.506;2023-11-22T04:54:17;-3.50;99.90
3478;DHT22;37937;61.490;23.506;2023-11-22T04:56:43;-3.50;99.90
3478;DHT22;37937;61.490;23.506;2023-11-22T04:59:09;-3.50;99.90
3478;DHT22;37937;61.490;23.506;2023-11-22T05:01:35;-3.60;99.90
3478;DHT22;37937;61.490;23.506;2023-11-22T05:04:00;-3.60;99.90
3478;DHT22;37937;61.490;23.506;2023-11-22T05:06:26;-3.60;99.90
3478;DHT22;37937;61.490;23.506;2023-11-22T05:08:55;-3.60;99.90
3478;DHT22;37937;61.490;23.506;2023-11-22T05:11:21;-3.60;99.90
3478;DHT22;37937;61.490;23.506;2023-11-22T05:13:46;-3.60;99.90
3478;DHT22;37937;61.490;23.506;2023-11-22T05:16:12;-3.60;99.90
3478;DHT22;37937;61.490;23.506;2023-11-22T05:18:38;-3.60;99.90
3478;DHT22;37937;61.490;23.506;2023-11-22T05:21:04;-3.60;99.90
3478;DHT22;37937;61.490;23.506;2023-11-22T05:23:30;-3.60;99.90
3478;DHT22;37937;61.490;23.506;2023-11-22T05:25:57;-3.60;99.90
3478;DHT22;37937;61.490;23.506;2023-11-22T05:28:25;-3.60;99.90
3478;DHT22;37937;61.490;23.506;2023-11-22T05:30:51;-3.50;99.90
3478;DHT22;37937;61.490;23.506;2023-11-22T05:33:16;-3.50;99.90
3478;DHT22;37937;61.490;23.506;2023-11-22T05:35:42;-3.40;99.90
3478;DHT22;37937;61.490;23.506;2023-11-22T05:38:08;-3.40;99.90
3478;DHT22;37937;61.490;23.506;2023-11-22T05:40:34;-3.40;99.90
3478;DHT22;37937;61.490;23.506;2023-11-22T05:42:59;-3.40;99.90
3478;DHT22;37937;61.490;23.506;2023-11-22T05:45:25;-3.40;99.90
3478;DHT22;37937;61.490;23.506;2023-11-22T05:47:51;-3.40;99.90
3478;DHT22;37937;61.490;23.506;2023-11-22T05:50:16;-3.50;99.90
3478;DHT22;37937;61.490;23.506;2023-11-22T05:52:43;-3.50;99.90
3478;DHT22;37937;61.490;23.506;2023-11-22T05:55:09;-3.50;99.90
3478;DHT22;37937;61.490;23.506;2023-11-22T05:57:35;-3.50;99.90
3478;DHT22;37937;61.490;23.506;2023-11-22T06:00:01;-3.50;99.90
3478;DHT22;37937;61.490;23.506;2023-11-22T06:02:27;-3.60;99.90
3478;DHT22;37937;61.490;23.506;2023-11-22T06:04:53;-3.60;99.90
3478;DHT22;37937;61.490;23.506;2023-11-22T06:07:18;-3.60;99.90
3478;DHT22;37937;61.490;23.506;2023-11-22T06:09:44;-3.60;99.90
3478;DHT22;37937;61.490;23.506;2023-11-22T06:12:10;-3.60;99.90
3478;DHT22;37937;61.490;23.506;2023-11-22T06:14:35;-3.60;99.90
3478;DHT22;37937;61.490;23.506;2023-11-22T06:17:01;-3.60;99.90
3478;DHT22;37937;61.490;23.506;2023-11-22T06:19:28;-3.70;99.90
3478;DHT22;37937;61.490;23.506;2023-11-22T06:21:54;-3.70;99.90
3478;DHT22;37937;61.490;23.506;2023-11-22T06:24:19;-3.80;99.90
3478;DHT22;37937;61.490;23.506;2023-11-22T06:26:45;-3.80;99.90
3478;DHT22;37937;61.490;23.506;2023-11-22T06:29:15;-3.70;99.90
3478;DHT22;37937;61.490;23.506;2023-11-22T06:31:40;-3.70;99.90
3478;DHT22;37937;61.490;23.506;2023-11-22T06:34:06;-3.80;99.90
3478;DHT22;37937;61.490;23.506;2023-11-22T06:36:32;-3.80;99.90
3478;DHT22;37937;61.490;23.506;2023-11-22T06:38:58;-3.80;99.90
3478;DHT22;37937;61.490;23.506;2023-11-22T06:41:23;-3.80;99.90
3478;DHT22;37937;61.490;23.506;2023-11-22T06:43:49;-3.80;99.90
3478;DHT22;37937;61.490;23.506;2023-11-22T06:46:15;-3.80;99.90
3478;DHT22;37937;61.490;23.506;2023-11-22T06:48:42;-3.80;99.90
3478;DHT22;37937;61.490;23.506;2023-11-22T06:51:09;-3.90;99.90
3478;DHT22;37937;61.490;23.506;2023-11-22T06:53:35;-3.90;99.90
3478;DHT22;37937;61.490;23.506;2023-11-22T06:56:01;-3.80;99.90
3478;DHT22;37937;61.490;23.506;2023-11-22T06:58:27;-3.80;99.90
3478;DHT22;37937;61.490;23.506;2023-11-22T07:00:52;-3.80;99.90
3478;DHT22;37937;61.490;23.506;2023-11-22T07:03:18;-3.80;99.90
3478;DHT22;37937;61.490;23.506;2023-11-22T07:05:44;-3.80;99.90
3478;DHT22;37937;61.490;23.506;2023-11-22T07:08:09;-3.80;99.90
3478;DHT22;37937;61.490;23.506;2023-11-22T07:10:36;-3.90;99.90
3478;DHT22;37937;61.490;23.506;2023-11-22T07:13:02;-3.80;99.90
3478;DHT22;37937;61.490;23.506;2023-11-22T07:15:28;-3.90;99.90
3478;DHT22;37937;61.490;23.506;2023-11-22T07:17:53;-4.00;99.90
3478;DHT22;37937;61.490;23.506;2023-11-22T07:20:20;-4.00;99.90
3478;DHT22;37937;61.490;23.506;2023-11-22T07:22:46;-4.10;99.90
3478;DHT22;37937;61.490;23.506;2023-11-22T07:25:11;-4.10;99.90
3478;DHT22;37937;61.490;23.506;2023-11-22T07:27:44;-4.10;99.90
3478;DHT22;37937;61.490;23.506;2023-11-22T07:30:10;-4.10;99.90
3478;DHT22;37937;61.490;23.506;2023-11-22T07:32:38;-4.10;99.90
3478;DHT22;37937;61.490;23.506;2023-11-22T07:35:05;-4.00;99.90
3478;DHT22;37937;61.490;23.506;2023-11-22T07:37:31;-4.00;99.90
3478;DHT22;37937;61.490;23.506;2023-11-22T07:39:57;-4.00;99.90
3478;DHT22;37937;61.490;23.506;2023-11-22T07:42:22;-4.00;99.90
3478;DHT22;37937;61.490;23.506;2023-11-22T07:44:48;-4.00;99.90
3478;DHT22;37937;61.490;23.506;2023-11-22T07:47:24;-4.00;99.90
3478;DHT22;37937;61.490;23.506;2023-11-22T07:49:50;-4.00;99.90
3478;DHT22;37937;61.490;23.506;2023-11-22T07:52:16;-3.90;99.90
3478;DHT22;37937;61.490;23.506;2023-11-22T07:54:42;-4.00;99.90
3478;DHT22;37937;61.490;23.506;2023-11-22T07:57:10;-3.90;99.90
3478;DHT22;37937;61.490;23.506;2023-11-22T07:59:35;-4.00;99.90
3478;DHT22;37937;61.490;23.506;2023-11-22T08:02:02;-4.00;99.90
3478;DHT22;37937;61.490;23.506;2023-11-22T08:04:27;-4.00;99.90
3478;DHT22;37937;61.490;23.506;2023-11-22T08:06:53;-4.00;99.90
3478;DHT22;37937;61.490;23.506;2023-11-22T08:09:22;-4.10;99.90
3478;DHT22;37937;61.490;23.506;2023-11-22T08:11:48;-4.10;99.90
3478;DHT22;37937;61.490;23.506;2023-11-22T08:14:14;-4.00;99.90
3478;DHT22;37937;61.490;23.506;2023-11-22T08:16:40;-4.00;99.90
3478;DHT22;37937;61.490;23.506;2023-11-22T08:19:08;-4.00;99.90
3478;DHT22;37937;61.490;23.506;2023-11-22T08:21:34;-4.00;99.90
3478;DHT22;37937;61.490;23.506;2023-11-22T08:24:00;-4.10;99.90
3478;DHT22;37937;61.490;23.506;2023-11-22T08:26:26;-4.10;99.90
3478;DHT22;37937;61.490;23.506;2023-11-22T08:28:51;-4.10;99.90
3478;DHT22;37937;61.490;23.506;2023-11-22T08:31:17;-4.10;99.90
3478;DHT22;37937;61.490;23.506;2023-11-22T08:33:43;-4.10;99.90
3478;DHT22;37937;61.490;23.506;2023-11-22T08:36:09;-4.00;99.90
3478;DHT22;37937;61.490;23.506;2023-11-22T08:38:35;-4.00;99.90
3478;DHT22;37937;61.490;23.506;2023-11-22T08:41:01;-4.00;99.90
3478;DHT22;37937;61.490;23.506;2023-11-22T08:43:28;-3.90;99.90
3478;DHT22;37937;61.490;23.506;2023-11-22T08:45:53;-3.80;99.90
3478;DHT22;37937;61.490;23.506;2023-11-22T08:48:19;-3.80;99.90
3478;DHT22;37937;61.490;23.506;2023-11-22T08:50:45;-3.80;99.90
3478;DHT22;37937;61.490;23.506;2023-11-22T08:53:12;-3.80;99.90
3478;DHT22;37937;61.490;23.506;2023-11-22T08:55:38;-3.80;99.90
3478;DHT22;37937;61.490;23.506;2023-11-22T08:58:04;-3.80;99.90
3478;DHT22;37937;61.490;23.506;2023-11-22T09:00:30;-3.80;99.90
3478;DHT22;37937;61.490;23.506;2023-11-22T09:02:57;-3.80;99.90
3478;DHT22;37937;61.490;23.506;2023-11-22T09:05:23;-3.80;99.90
3478;DHT22;37937;61.490;23.506;2023-11-22T09:07:49;-3.90;99.90
3478;DHT22;37937;61.490;23.506;2023-11-22T09:10:16;-3.80;99.90
3478;DHT22;37937;61.490;23.506;2023-11-22T09:12:44;-3.90;99.90
3478;DHT22;37937;61.490;23.506;2023-11-22T09:15:10;-3.90;99.90
3478;DHT22;37937;61.490;23.506;2023-11-22T09:17:37;-3.90;99.90
3478;DHT22;37937;61.490;23.506;2023-11-22T09:22:41;-3.90;99.90
3478;DHT22;37937;61.490;23.506;2023-11-22T09:25:09;-4.00;99.90
3478;DHT22;37937;61.490;23.506;2023-11-22T09:27:36;-3.90;99.90
3478;DHT22;37937;61.490;23.506;2023-11-22T09:30:03;-4.00;99.90
3478;DHT22;37937;61.490;23.506;2023-11-22T09:32:29;-3.90;99.90
3478;DHT22;37937;61.490;23.506;2023-11-22T09:34:54;-3.90;99.90
3478;DHT22;37937;61.490;23.506;2023-11-22T09:37:23;-3.80;99.90
3478;DHT22;37937;61.490;23.506;2023-11-22T09:39:50;-3.80;99.90
3478;DHT22;37937;61.490;23.506;2023-11-22T09:42:15;-3.90;99.90
3478;DHT22;37937;61.490;23.506;2023-11-22T09:44:41;-3.90;99.90
3478;DHT22;37937;61.490;23.506;2023-11-22T09:47:07;-4.00;99.90
3478;DHT22;37937;61.490;23.506;2023-11-22T09:49:33;-4.00;99.90
3478;DHT22;37937;61.490;23.506;2023-11-22T09:52:01;-3.90;99.90
3478;DHT22;37937;61.490;23.506;2023-11-22T09:54:28;-4.00;99.90
3478;DHT22;37937;61.490;23.506;2023-11-22T09:56:56;-4.00;99.90
3478;DHT22;37937;61.490;23.506;2023-11-22T09:59:22;-3.90;99.90
3478;DHT22;37937;61.490;23.506;2023-11-22T10:01:48;-3.90;99.90
3478;DHT22;37937;61.490;23.506;2023-11-22T10:04:14;-3.80;99.90
3478;DHT22;37937;61.490;23.506;2023-11-22T10:06:40;-3.90;99.90
3478;DHT22;37937;61.490;23.506;2023-11-22T10:09:11;-3.80;99.90
3478;DHT22;37937;61.490;23.506;2023-11-22T10:11:39;-3.70;99.90
3478;DHT22;37937;61.490;23.506;2023-11-22T10:14:09;-3.70;99.90
3478;DHT22;37937;61.490;23.506;2023-11-22T10:16:34;-3.70;99.90
3478;DHT22;37937;61.490;23.506;2023-11-22T10:19:00;-3.70;99.90
3478;DHT22;37937;61.490;23.506;2023-11-22T10:21:27;-3.70;99.90
3478;DHT22;37937;61.490;23.506;2023-11-22T10:23:57;-3.80;99.90
3478;DHT22;37937;61.490;23.506;2023-11-22T10:26:25;-3.70;99.90
3478;DHT22;37937;61.490;23.506;2023-11-22T10:28:54;-3.70;99.90
3478;DHT22;37937;61.490;23.506;2023-11-22T10:31:20;-3.60;99.90
3478;DHT22;37937;61.490;23.506;2023-11-22T10:33:47;-3.60;99.90
3478;DHT22;37937;61.490;23.506;2023-11-22T10:36:13;-3.60;99.90
3478;DHT22;37937;61.490;23.506;2023-11-22T10:38:38;-3.50;99.90
3478;DHT22;37937;61.490;23.506;2023-11-22T10:41:04;-3.60;99.90
3478;DHT22;37937;61.490;23.506;2023-11-22T10:43:30;-3.50;99.90
3478;DHT22;37937;61.490;23.506;2023-11-22T10:46:01;-3.40;99.90
3478;DHT22;37937;61.490;23.506;2023-11-22T10:48:27;-3.40;99.90
3478;DHT22;37937;61.490;23.506;2023-11-22T10:50:55;-3.30;99.90
3478;DHT22;37937;61.490;23.506;2023-11-22T10:53:22;-3.40;99.90
3478;DHT22;37937;61.490;23.506;2023-11-22T10:55:53;-3.30;99.90
3478;DHT22;37937;61.490;23.506;2023-11-22T10:58:23;-3.30;99.90
3478;DHT22;37937;61.490;23.506;2023-11-22T11:00:51;-3.40;99.90
3478;DHT22;37937;61.490;23.506;2023-11-22T11:03:20;-3.30;99.90
3478;DHT22;37937;61.490;23.506;2023-11-22T11:05:58;-3.30;99.90
3478;DHT22;37937;61.490;23.506;2023-11-22T11:08:28;-3.20;99.90
3478;DHT22;37937;61.490;23.506;2023-11-22T11:10:54;-3.30;99.90
3478;DHT22;37937;61.490;23.506;2023-11-22T11:13:23;-3.30;99.90
3478;DHT22;37937;61.490;23.506;2023-11-22T11:15:49;-3.30;99.90
3478;DHT22;37937;61.490;23.506;2023-11-22T11:18:16;-3.30;99.90
3478;DHT22;37937;61.490;23.506;2023-11-22T11:20:47;-3.40;99.90
3478;DHT22;37937;61.490;23.506;2023-11-22T11:23:25;-3.30;99.90
3478;DHT22;37937;61.490;23.506;2023-11-22T11:26:08;-3.30;99.90
3478;DHT22;37937;61.490;23.506;2023-11-22T11:28:44;-3.30;99.90
3478;DHT22;37937;61.490;23.506;2023-11-22T11:31:09;-3.30;99.90
3478;DHT22;37937;61.490;23.506;2023-11-22T11:33:52;-3.40;99.90
3478;DHT22;37937;61.490;23.506;2023-11-22T11:38:48;-3.30;99.90
3478;DHT22;37937;61.490;23.506;2023-11-22T11:41:14;-3.20;99.90
3478;DHT22;37937;61.490;23.506;2023-11-22T11:43:42;-3.20;99.90
3478;DHT22;37937;61.490;23.506;2023-11-22T11:46:08;-3.20;99.90
3478;DHT22;37937;61.490;23.506;2023-11-22T11:48:34;-3.10;99.90
3478;DHT22;37937;61.490;23.506;2023-11-22T11:51:00;-3.10;99.90
3478;DHT22;37937;61.490;23.506;2023-11-22T11:53:26;-3.10;99.90
3478;DHT22;37937;61.490;23.506;2023-11-22T11:55:52;-3.10;99.90
3478;DHT22;37937;61.490;23.506;2023-11-22T11:58:19;-3.10;99.90
3478;DHT22;37937;61.490;23.506;2023-11-22T12:00:44;-3.00;99.90
3478;DHT22;37937;61.490;23.506;2023-11-22T12:03:10;-3.00;99.90
3478;DHT22;37937;61.490;23.506;2023-11-22T12:05:36;-2.90;99.90
3478;DHT22;37937;61.490;23.506;2023-11-22T12:08:02;-2.90;99.90
3478;DHT22;37937;61.490;23.506;2023-11-22T12:10:28;-2.80;99.90
3478;DHT22;37937;61.490;23.506;2023-11-22T12:12:55;-2.70;99.90
3478;DHT22;37937;61.490;23.506;2023-11-22T12:15:20;-2.70;99.90
3478;DHT22;37937;61.490;23.506;2023-11-22T12:17:48;-2.80;99.90
3478;DHT22;37937;61.490;23.506;2023-11-22T12:20:15;-2.80;99.90
3478;DHT22;37937;61.490;23.506;2023-11-22T12:22:43;-2.80;99.90
3478;DHT22;37937;61.490;23.506;2023-11-22T12:25:10;-2.80;99.90
3478;DHT22;37937;61.490;23.506;2023-11-22T12:27:38;-2.80;99.90
3478;DHT22;37937;61.490;23.506;2023-11-22T12:30:04;-2.80;99.90
3478;DHT22;37937;61.490;23.506;2023-11-22T12:32:30;-2.80;99.90
3478;DHT22;37937;61.490;23.506;2023-11-22T12:34:55;-2.80;99.90
3478;DHT22;37937;61.490;23.506;2023-11-22T12:37:21;-2.80;99.90
3478;DHT22;37937;61.490;23.506;2023-11-22T12:39:48;-2.80;99.90
3478;DHT22;37937;61.490;23.506;2023-11-22T12:42:14;-2.80;99.90
3478;DHT22;37937;61.490;23.506;2023-11-22T12:44:49;-2.80;99.90
3478;DHT22;37937;61.490;23.506;2023-11-22T12:47:15;-2.80;99.90
3478;DHT22;37937;61.490;23.506;2023-11-22T12:49:47;-2.80;99.90
3478;DHT22;37937;61.490;23.506;2023-11-22T12:52:13;-2.80;99.90
3478;DHT22;37937;61.490;23.506;2023-11-22T12:54:39;-2.80;99.90
3478;DHT22;37937;61.490;23.506;2023-11-22T12:57:10;-2.70;99.90
3478;DHT22;37937;61.490;23.506;2023-11-22T12:59:37;-2.70;99.90
3478;DHT22;37937;61.490;23.506;2023-11-22T13:02:02;-2.70;99.90
3478;DHT22;37937;61.490;23.506;2023-11-22T13:04:28;-2.60;99.90
3478;DHT22;37937;61.490;23.506;2023-11-22T13:06:55;-2.60;99.90
3478;DHT22;37937;61.490;23.506;2023-11-22T13:09:22;-2.50;99.90
3478;DHT22;37937;61.490;23.506;2023-11-22T13:11:48;-2.50;99.90
3478;DHT22;37937;61.490;23.506;2023-11-22T13:14:14;-2.50;99.90
3478;DHT22;37937;61.490;23.506;2023-11-22T13:16:40;-2.50;99.90
3478;DHT22;37937;61.490;23.506;2023-11-22T13:19:05;-2.50;99.90
3478;DHT22;37937;61.490;23.506;2023-11-22T13:21:31;-2.50;99.90
3478;DHT22;37937;61.490;23.506;2023-11-22T13:23:57;-2.40;99.90
3478;DHT22;37937;61.490;23.506;2023-11-22T13:26:25;-2.40;99.90
3478;DHT22;37937;61.490;23.506;2023-11-22T13:28:51;-2.30;99.90
3478;DHT22;37937;61.490;23.506;2023-11-22T13:31:17;-2.30;99.90
3478;DHT22;37937;61.490;23.506;2023-11-22T13:33:43;-2.30;99.90
3478;DHT22;37937;61.490;23.506;2023-11-22T13:36:09;-2.20;99.90
3478;DHT22;37937;61.490;23.506;2023-11-22T13:38:36;-2.20;99.90
3478;DHT22;37937;61.490;23.506;2023-11-22T13:41:03;-2.20;99.90
3478;DHT22;37937;61.490;23.506;2023-11-22T13:43:29;-2.20;99.90
3478;DHT22;37937;61.490;23.506;2023-11-22T13:45:54;-2.20;99.90
3478;DHT22;37937;61.490;23.506;2023-11-22T13:48:20;-2.10;99.90
3478;DHT22;37937;61.490;23.506;2023-11-22T13:50:48;-2.10;99.90
3478;DHT22;37937;61.490;23.506;2023-11-22T13:53:14;-2.10;99.90
3478;DHT22;37937;61.490;23.506;2023-11-22T13:55:40;-2.10;99.90
3478;DHT22;37937;61.490;23.506;2023-11-22T13:58:06;-2.00;99.90
3478;DHT22;37937;61.490;23.506;2023-11-22T14:00:33;-2.00;99.90
3478;DHT22;37937;61.490;23.506;2023-11-22T14:03:00;-1.90;99.90
3478;DHT22;37937;61.490;23.506;2023-11-22T14:05:33;-1.90;99.90
3478;DHT22;37937;61.490;23.506;2023-11-22T14:07:59;-1.90;99.90
3478;DHT22;37937;61.490;23.506;2023-11-22T14:10:26;-1.80;99.90
3478;DHT22;37937;61.490;23.506;2023-11-22T14:12:51;-1.80;99.90
3478;DHT22;37937;61.490;23.506;2023-11-22T14:15:17;-1.70;99.90
3478;DHT22;37937;61.490;23.506;2023-11-22T14:17:45;-1.60;99.90
3478;DHT22;37937;61.490;23.506;2023-11-22T14:20:14;-1.60;99.90
3478;DHT22;37937;61.490;23.506;2023-11-22T14:22:40;-1.60;99.90
3478;DHT22;37937;61.490;23.506;2023-11-22T14:25:07;-1.40;99.90
3478;DHT22;37937;61.490;23.506;2023-11-22T14:27:40;-1.40;99.90
3478;DHT22;37937;61.490;23.506;2023-11-22T14:30:09;-1.30;99.90
3478;DHT22;37937;61.490;23.506;2023-11-22T14:32:37;-1.30;99.90
3478;DHT22;37937;61.490;23.506;2023-11-22T14:35:03;-1.20;99.90
3478;DHT22;37937;61.490;23.506;2023-11-22T14:37:30;-1.10;99.90
3478;DHT22;37937;61.490;23.506;2023-11-22T14:39:56;-1.00;99.90
3478;DHT22;37937;61.490;23.506;2023-11-22T14:42:22;-1.00;99.90
3478;DHT22;37937;61.490;23.506;2023-11-22T14:44:48;-0.90;99.90
3478;DHT22;37937;61.490;23.506;2023-11-22T14:47:14;-0.80;99.90
3478;DHT22;37937;61.490;23.506;2023-11-22T14:49:48;-0.70;99.90
3478;DHT22;37937;61.490;23.506;2023-11-22T14:52:14;-0.70;99.90
3478;DHT22;37937;61.490;23.506;2023-11-22T14:54:41;-0.60;99.90
3478;DHT22;37937;61.490;23.506;2023-11-22T14:57:07;-0.60;99.90
3478;DHT22;37937;61.490;23.506;2023-11-22T14:59:35;-0.60;99.90
3478;DHT22;37937;61.490;23.506;2023-11-22T15:02:03;-0.50;99.90
3478;DHT22;37937;61.490;23.506;2023-11-22T15:04:30;-0.50;99.90
3478;DHT22;37937;61.490;23.506;2023-11-22T15:06:55;-0.50;99.90
3478;DHT22;37937;61.490;23.506;2023-11-22T15:09:21;-0.40;99.90
3478;DHT22;37937;61.490;23.506;2023-11-22T15:11:47;-0.40;99.90
3478;DHT22;37937;61.490;23.506;2023-11-22T15:14:13;-0.30;99.90
3478;DHT22;37937;61.490;23.506;2023-11-22T15:16:39;-0.30;99.90
3478;DHT22;37937;61.490;23.506;2023-11-22T15:19:04;-0.30;99.90
3478;DHT22;37937;61.490;23.506;2023-11-22T15:21:32;-0.30;99.90
3478;DHT22;37937;61.490;23.506;2023-11-22T15:23:59;-0.30;99.90
3478;DHT22;37937;61.490;23.506;2023-11-22T15:26:24;-0.20;99.90
3478;DHT22;37937;61.490;23.506;2023-11-22T15:28:50;-0.30;99.90
3478;DHT22;37937;61.490;23.506;2023-11-22T15:31:18;-0.30;99.90